Time;durP1;ratioP1;P1;durP2;ratioP2;P2;SDS_P1;SDS_P2;PMS_P1;PMS_P2;Temp;Humidity;BMP_temperature;BMP_pressure;BME280_temperature;BME280_humidity;BME280_pressure;Samples;Min_cycle;Max_cycle;Signal;HPM_P1;HPM_P2
2023/11/09 00:01:01;;;;;;;14.50;9.13;;;7.90;99.90;;;;;;5092929;28;20201;-87
2023/11/09 00:03:28;;;;;;;16.53;9.67;;;7.90;99.90;;;;;;5092812;28;20209;-86
2023/11/09 00:05:56;;;;;;;14.60;8.70;;;7.90;99.90;;;;;;5092482;28;20195;-87
2023/11/09 00:08:23;;;;;;;14.30;8.73;;;8.00;99.90;;;;;;5075607;28;20645;-87
2023/11/09 00:10:51;;;;;;;15.00;8.97;;;7.90;99.90;;;;;;5093823;28;20607;-87
2023/11/09 00:13:18;;;;;;;15.17;9.13;;;8.00;99.90;;;;;;5075636;28;20290;-88
2023/11/09 00:15:45;;;;;;;15.13;8.90;;;7.90;99.90;;;;;;5092551;28;20205;-87
2023/11/09 00:18:21;;;;;;;14.17;9.40;;;7.90;99.90;;;;;;5093963;28;20555;-87
2023/11/09 00:20:50;;;;;;;13.20;8.23;;;7.90;99.90;;;;;;5092239;28;20195;-87
2023/11/09 00:23:17;;;;;;;13.03;8.23;;;7.90;99.90;;;;;;5093401;28;20553;-87
2023/11/09 00:25:44;;;;;;;14.53;7.97;;;7.90;99.90;;;;;;5093562;28;20221;-87
2023/11/09 00:28:14;;;;;;;14.80;8.63;;;7.90;99.90;;;;;;5091921;28;20676;-87
2023/11/09 00:30:43;;;;;;;12.23;7.83;;;7.90;99.90;;;;;;5091914;28;20212;-87
2023/11/09 00:33:11;;;;;;;13.47;7.67;;;7.90;99.90;;;;;;5092112;28;20618;-87
2023/11/09 00:35:39;;;;;;;14.33;7.87;;;7.80;99.90;;;;;;5093284;28;20233;-88
2023/11/09 00:38:07;;;;;;;15.20;8.20;;;7.80;99.90;;;;;;5091872;28;20193;-87
2023/11/09 00:40:35;;;;;;;13.00;7.57;;;7.70;99.90;;;;;;5091779;28;20264;-87
2023/11/09 00:43:02;;;;;;;12.03;7.43;;;7.70;99.90;;;;;;5093356;28;20190;-87
2023/11/09 00:45:34;;;;;;;11.17;6.73;;;7.70;99.90;;;;;;5091638;28;20232;-87
2023/11/09 00:48:02;;;;;;;12.37;7.33;;;7.60;99.90;;;;;;5093573;28;20197;-87
2023/11/09 00:50:31;;;;;;;14.03;7.70;;;7.60;99.90;;;;;;5093454;28;20177;-87
2023/11/09 00:52:58;;;;;;;11.57;7.03;;;7.60;99.90;;;;;;5092688;28;20224;-87
2023/11/09 00:55:25;;;;;;;13.33;7.63;;;7.60;99.90;;;;;;5093251;28;20364;-88
2023/11/09 00:57:53;;;;;;;14.47;7.63;;;7.50;99.90;;;;;;5091617;28;20194;-87
2023/11/09 01:00:20;;;;;;;11.17;7.40;;;7.50;99.90;;;;;;5093148;28;20223;-88
2023/11/09 01:02:49;;;;;;;13.90;7.10;;;7.50;99.90;;;;;;5093011;28;20200;-88
2023/11/09 01:05:16;;;;;;;13.27;7.87;;;7.40;99.90;;;;;;5092369;28;20192;-88
2023/11/09 01:07:43;;;;;;;14.53;8.03;;;7.30;99.90;;;;;;5091967;28;20196;-88
2023/11/09 01:10:11;;;;;;;12.10;8.07;;;7.20;99.90;;;;;;5092858;28;20221;-88
2023/11/09 01:12:38;;;;;;;13.30;8.57;;;7.20;99.90;;;;;;5092893;28;20223;-88
2023/11/09 01:15:05;;;;;;;13.03;8.30;;;7.10;99.90;;;;;;5092590;28;20190;-88
2023/11/09 01:17:37;;;;;;;13.77;8.23;;;7.10;99.90;;;;;;5091380;28;20205;-87
2023/11/09 01:20:05;;;;;;;14.70;8.53;;;7.00;99.90;;;;;;5091731;28;20196;-88
2023/11/09 01:22:34;;;;;;;13.73;8.83;;;7.00;99.90;;;;;;5092521;28;20203;-88
2023/11/09 01:25:01;;;;;;;12.90;8.40;;;7.00;99.90;;;;;;5092478;28;20591;-87
2023/11/09 01:27:29;;;;;;;12.57;8.43;;;7.00;99.90;;;;;;5091119;28;20212;-87
2023/11/09 01:29:56;;;;;;;16.00;8.60;;;6.90;99.90;;;;;;5092458;28;20546;-87
2023/11/09 01:32:25;;;;;;;16.27;9.00;;;6.90;99.90;;;;;;5091087;28;20219;-87
2023/11/09 01:34:52;;;;;;;14.10;8.73;;;6.90;99.90;;;;;;5091169;28;20236;-87
2023/11/09 01:37:19;;;;;;;16.03;8.27;;;6.80;99.90;;;;;;5092040;28;20315;-87
2023/11/09 01:39:47;;;;;;;15.63;8.57;;;6.80;99.90;;;;;;5090954;28;20220;-87
2023/11/09 01:42:14;;;;;;;14.43;9.27;;;6.80;99.90;;;;;;5074481;28;20740;-87
2023/11/09 01:44:41;;;;;;;15.10;9.03;;;6.70;99.90;;;;;;5092228;28;20210;-87
2023/11/09 01:47:09;;;;;;;17.10;9.40;;;6.70;99.90;;;;;;5074309;28;20208;-86
2023/11/09 01:49:37;;;;;;;19.60;9.03;;;6.70;99.90;;;;;;5092153;28;20196;-87
2023/11/09 01:52:05;;;;;;;15.37;9.30;;;6.70;99.90;;;;;;5074120;28;20656;-87
2023/11/09 01:54:33;;;;;;;14.20;8.77;;;6.60;99.90;;;;;;5092702;28;20199;-87
2023/11/09 01:57:02;;;;;;;15.57;9.20;;;6.60;99.90;;;;;;5074541;28;20212;-87
2023/11/09 01:59:32;;;;;;;16.83;9.80;;;6.60;99.90;;;;;;5092349;28;20196;-87
2023/11/09 02:02:01;;;;;;;16.17;9.60;;;6.50;99.90;;;;;;5091007;28;20205;-87
2023/11/09 02:04:28;;;;;;;14.37;8.93;;;6.50;99.90;;;;;;5094762;28;20211;-87
2023/11/09 02:06:56;;;;;;;16.70;9.73;;;6.50;99.90;;;;;;5095233;28;20659;-87
2023/11/09 02:09:24;;;;;;;17.40;9.93;;;6.50;99.90;;;;;;5096360;28;20287;-88
2023/11/09 02:11:51;;;;;;;15.23;9.30;;;6.40;99.90;;;;;;5095851;28;20207;-87
2023/11/09 02:14:19;;;;;;;17.60;10.23;;;6.40;99.90;;;;;;5096014;28;20208;-87
2023/11/09 02:16:47;;;;;;;20.13;10.20;;;6.30;99.90;;;;;;5095938;28;20280;-87
2023/11/09 02:19:20;;;;;;;16.50;10.03;;;6.30;99.90;;;;;;5095833;28;20240;-87
2023/11/09 02:21:52;;;;;;;15.10;9.83;;;6.30;99.90;;;;;;5096070;28;20231;-87
2023/11/09 02:24:20;;;;;;;17.73;10.40;;;6.20;99.90;;;;;;5077732;28;20207;-86
2023/11/09 02:26:47;;;;;;;17.80;10.17;;;6.20;99.90;;;;;;5095672;28;20226;-86
2023/11/09 02:29:15;;;;;;;17.33;10.20;;;6.10;99.90;;;;;;5095592;28;20198;-86
2023/11/09 02:31:42;;;;;;;19.67;9.93;;;6.10;99.90;;;;;;5095524;28;20192;-86
2023/11/09 02:34:10;;;;;;;17.40;10.40;;;6.10;99.90;;;;;;5094456;28;20552;-86
2023/11/09 02:36:38;;;;;;;18.30;10.47;;;6.10;99.90;;;;;;5095373;28;20577;-86
2023/11/09 02:39:05;;;;;;;17.20;10.43;;;6.10;99.90;;;;;;5095383;28;20189;-86
2023/11/09 02:41:32;;;;;;;18.93;10.50;;;6.10;99.90;;;;;;5095660;28;20241;-86
2023/11/09 02:43:59;;;;;;;18.17;11.30;;;6.10;99.90;;;;;;5095307;28;20673;-86
2023/11/09 02:46:26;;;;;;;18.07;10.43;;;6.00;99.90;;;;;;5095470;28;20230;-87
2023/11/09 02:48:53;;;;;;;21.20;11.33;;;6.00;99.90;;;;;;5095131;28;20261;-87
2023/11/09 02:51:21;;;;;;;19.37;11.07;;;5.90;99.90;;;;;;5094716;28;20693;-86
2023/11/09 02:53:48;;;;;;;21.70;10.77;;;5.90;99.90;;;;;;5094142;28;20371;-87
2023/11/09 02:56:15;;;;;;;21.00;11.50;;;5.90;99.90;;;;;;5093696;28;20214;-86
2023/11/09 02:58:45;;;;;;;19.57;11.47;;;5.80;99.90;;;;;;5095248;28;20225;-86
2023/11/09 03:01:13;;;;;;;19.43;10.97;;;5.80;99.90;;;;;;5094093;28;20193;-86
2023/11/09 03:03:40;;;;;;;20.57;10.93;;;5.80;99.90;;;;;;5093963;28;20201;-87
2023/11/09 03:06:07;;;;;;;19.27;11.33;;;5.80;99.90;;;;;;5076865;28;20199;-87
2023/11/09 03:08:34;;;;;;;19.63;11.10;;;5.80;99.90;;;;;;5094963;28;20329;-87
2023/11/09 03:11:02;;;;;;;20.17;11.87;;;5.80;99.90;;;;;;5095092;28;20238;-87
2023/11/09 03:13:29;;;;;;;21.37;11.97;;;5.80;99.90;;;;;;5095143;28;20251;-88
2023/11/09 03:15:56;;;;;;;25.20;12.37;;;5.70;99.90;;;;;;5094100;28;20192;-87
2023/11/09 03:18:24;;;;;;;21.73;12.17;;;5.70;99.90;;;;;;5094880;28;20195;-87
2023/11/09 03:20:51;;;;;;;22.63;12.93;;;5.70;99.90;;;;;;5094739;28;20194;-87
2023/11/09 03:23:20;;;;;;;21.93;12.73;;;5.60;99.90;;;;;;5093277;28;20347;-87
2023/11/09 03:25:47;;;;;;;19.63;12.30;;;5.60;99.90;;;;;;5093226;28;20283;-87
2023/11/09 03:28:14;;;;;;;20.63;11.57;;;5.50;99.90;;;;;;5093392;28;20204;-86
2023/11/09 03:30:41;;;;;;;21.73;12.07;;;5.60;99.90;;;;;;5094811;28;20202;-87
2023/11/09 03:33:08;;;;;;;20.77;12.20;;;5.50;99.90;;;;;;5094584;28;20269;-86
2023/11/09 03:35:36;;;;;;;20.27;11.60;;;5.50;99.90;;;;;;5094465;28;20237;-87
2023/11/09 03:38:03;;;;;;;22.27;12.30;;;5.50;99.90;;;;;;5093148;28;20218;-86
2023/11/09 03:40:30;;;;;;;19.80;11.87;;;5.50;99.90;;;;;;5076347;28;20234;-86
2023/11/09 03:42:58;;;;;;;24.70;12.57;;;5.40;99.90;;;;;;5093001;28;20206;-86
2023/11/09 03:45:25;;;;;;;20.60;11.73;;;5.40;99.90;;;;;;5076220;28;20201;-87
2023/11/09 03:47:53;;;;;;;22.00;12.37;;;5.40;99.90;;;;;;5092864;28;20225;-87
2023/11/09 03:50:21;;;;;;;20.37;12.50;;;5.40;99.90;;;;;;5093301;28;20245;-87
2023/11/09 03:52:50;;;;;;;18.43;11.50;;;5.40;99.90;;;;;;5092598;28;20217;-87
2023/11/09 03:55:17;;;;;;;20.70;12.27;;;5.40;99.90;;;;;;5093977;28;20225;-86
2023/11/09 03:57:44;;;;;;;21.77;11.93;;;5.40;99.90;;;;;;5092763;28;20304;-87
2023/11/09 04:00:12;;;;;;;22.07;12.07;;;5.30;99.90;;;;;;5092697;28;20195;-86
2023/11/09 04:02:43;;;;;;;20.27;11.63;;;5.30;99.90;;;;;;5092521;28;20660;-86
2023/11/09 04:05:11;;;;;;;20.93;12.53;;;5.30;99.90;;;;;;5092683;28;20283;-86
2023/11/09 04:07:43;;;;;;;22.53;12.33;;;5.30;99.90;;;;;;5093077;28;20197;-86
2023/11/09 04:10:12;;;;;;;21.57;12.50;;;5.30;99.90;;;;;;5093067;28;20214;-87
2023/11/09 04:12:40;;;;;;;24.07;12.80;;;5.20;99.90;;;;;;5093988;28;20195;-86
2023/11/09 04:15:09;;;;;;;22.30;13.23;;;5.20;99.90;;;;;;5092543;28;20217;-87
2023/11/09 04:17:36;;;;;;;22.30;12.73;;;5.20;99.90;;;;;;5092484;28;20252;-86
2023/11/09 04:20:06;;;;;;;22.33;12.47;;;5.10;99.90;;;;;;5092392;28;20268;-86
2023/11/09 04:22:35;;;;;;;20.37;12.67;;;5.10;99.90;;;;;;5075877;28;20734;-87
2023/11/09 04:25:02;;;;;;;19.47;12.27;;;5.00;99.90;;;;;;5092519;28;20275;-86
2023/11/09 04:27:29;;;;;;;22.77;13.47;;;5.00;99.90;;;;;;5074942;28;20695;-86
2023/11/09 04:29:57;;;;;;;21.50;12.73;;;5.10;99.90;;;;;;5093372;28;20653;-87
2023/11/09 04:32:25;;;;;;;20.37;13.00;;;5.10;99.90;;;;;;5092241;28;20190;-87
2023/11/09 04:34:53;;;;;;;21.87;12.60;;;5.10;99.90;;;;;;5092281;28;20297;-87
2023/11/09 04:37:21;;;;;;;19.47;12.70;;;5.10;99.90;;;;;;5093199;28;20681;-86
2023/11/09 04:39:51;;;;;;;22.00;12.77;;;5.10;99.90;;;;;;5092027;28;20269;-86
2023/11/09 04:42:19;;;;;;;21.90;12.83;;;5.10;99.90;;;;;;5091913;28;20194;-87
2023/11/09 04:44:47;;;;;;;22.37;12.73;;;5.00;99.90;;;;;;5093099;28;20192;-87
2023/11/09 04:47:14;;;;;;;21.50;13.20;;;5.00;99.90;;;;;;5075335;28;20214;-86
2023/11/09 04:49:57;;;;;;;22.13;13.13;;;5.00;99.90;;;;;;5074926;28;20628;-87
2023/11/09 04:52:27;;;;;;;21.80;12.70;;;4.90;99.90;;;;;;5091807;28;20197;-88
2023/11/09 04:55:07;;;;;;;19.63;12.93;;;4.90;99.90;;;;;;5091802;28;20223;-87
2023/11/09 05:08:36;;;;;;;19.40;12.80;;;4.80;99.90;;;;;;5091323;28;20682;-87
2023/11/09 05:11:03;;;;;;;20.13;12.23;;;4.90;99.90;;;;;;5092839;28;20307;-87
2023/11/09 05:13:30;;;;;;;20.70;12.00;;;4.90;99.90;;;;;;5091574;28;20296;-86
2023/11/09 05:15:57;;;;;;;20.90;12.50;;;4.90;99.90;;;;;;5091363;28;20186;-87
2023/11/09 05:18:26;;;;;;;19.20;11.53;;;4.90;99.90;;;;;;5092787;28;20233;-87
2023/11/09 05:20:53;;;;;;;18.10;11.47;;;4.90;99.90;;;;;;5074481;28;20193;-87
2023/11/09 05:23:20;;;;;;;20.60;11.80;;;4.80;99.90;;;;;;5092901;28;20202;-87
2023/11/09 05:25:48;;;;;;;19.90;12.67;;;4.80;99.90;;;;;;5074468;28;20223;-87
2023/11/09 05:28:15;;;;;;;17.93;11.63;;;4.90;99.90;;;;;;5091556;28;20198;-87
2023/11/09 05:30:42;;;;;;;22.33;12.47;;;4.90;99.90;;;;;;5092698;28;20202;-87
2023/11/09 05:33:09;;;;;;;19.17;11.40;;;4.90;99.90;;;;;;5091344;28;20275;-87
2023/11/09 05:35:35;;;;;;;19.87;11.90;;;4.80;99.90;;;;;;5092387;28;20308;-88
2023/11/09 05:38:03;;;;;;;23.13;11.87;;;4.90;99.90;;;;;;5092078;28;20189;-87
2023/11/09 05:40:30;;;;;;;16.97;11.20;;;4.80;99.90;;;;;;5091205;28;20220;-87
2023/11/09 05:42:59;;;;;;;20.37;12.17;;;4.80;99.90;;;;;;5092155;28;20200;-84
2023/11/09 05:45:26;;;;;;;17.07;11.80;;;4.70;99.90;;;;;;5092582;28;20234;-86
2023/11/09 05:47:53;;;;;;;17.50;11.93;;;4.70;99.90;;;;;;5092347;28;20282;-87
2023/11/09 05:50:21;;;;;;;18.33;11.67;;;4.60;99.90;;;;;;5092477;28;20202;-86
2023/11/09 05:52:48;;;;;;;19.43;11.17;;;4.70;99.90;;;;;;5094048;28;20629;-85
2023/11/09 05:55:15;;;;;;;18.57;11.57;;;4.70;99.90;;;;;;5093208;28;20588;-86
2023/11/09 05:57:42;;;;;;;21.53;11.90;;;4.60;99.90;;;;;;5092122;28;20276;-87
2023/11/09 06:00:10;;;;;;;18.40;11.53;;;4.60;99.90;;;;;;5091036;28;20201;-87
2023/11/09 06:02:37;;;;;;;20.47;11.27;;;4.60;99.90;;;;;;5092005;28;20589;-87
2023/11/09 06:05:05;;;;;;;20.47;11.20;;;4.60;99.90;;;;;;5090490;28;20233;-86
2023/11/09 06:07:34;;;;;;;20.30;12.00;;;4.70;99.90;;;;;;5092089;28;20247;-86
2023/11/09 06:10:03;;;;;;;22.43;11.30;;;4.70;99.90;;;;;;5090568;28;20187;-86
2023/11/09 06:12:30;;;;;;;16.97;11.00;;;4.70;99.90;;;;;;5093812;28;20225;-86
2023/11/09 06:14:57;;;;;;;20.60;11.40;;;4.70;99.90;;;;;;5091678;28;20223;-86
2023/11/09 06:17:24;;;;;;;17.23;11.37;;;4.70;99.90;;;;;;5092010;28;20193;-86
2023/11/09 06:19:51;;;;;;;19.13;11.03;;;4.70;99.90;;;;;;5091763;28;20285;-86
2023/11/09 06:22:18;;;;;;;20.53;11.30;;;4.70;99.90;;;;;;5091714;28;20646;-85
2023/11/09 06:24:45;;;;;;;18.10;11.13;;;4.70;99.90;;;;;;5092585;28;20274;-86
2023/11/09 06:27:17;;;;;;;19.57;10.50;;;4.70;99.90;;;;;;5094509;28;20218;-85
2023/11/09 06:29:44;;;;;;;21.23;11.47;;;4.80;99.90;;;;;;5090865;28;20537;-85
2023/11/09 06:32:11;;;;;;;18.73;10.30;;;4.80;99.90;;;;;;5074189;28;20198;-86
2023/11/09 06:34:39;;;;;;;18.23;10.77;;;4.90;99.90;;;;;;5091640;28;20686;-86
2023/11/09 06:37:07;;;;;;;19.13;10.97;;;4.80;99.90;;;;;;5091751;28;20244;-86
2023/11/09 06:39:34;;;;;;;18.03;10.50;;;4.90;99.90;;;;;;5091629;28;20703;-85
2023/11/09 06:42:02;;;;;;;20.20;11.23;;;4.90;99.90;;;;;;5091751;28;20222;-88
2023/11/09 06:44:29;;;;;;;17.43;10.53;;;5.00;99.90;;;;;;5091571;28;20222;-86
2023/11/09 06:46:59;;;;;;;15.20;10.07;;;5.00;99.90;;;;;;5091409;28;20195;-84
2023/11/09 06:49:29;;;;;;;17.57;10.80;;;5.00;99.90;;;;;;5091842;28;20322;-84
2023/11/09 06:51:57;;;;;;;17.27;10.43;;;5.10;99.90;;;;;;5095547;28;20285;-84
2023/11/09 06:54:24;;;;;;;19.87;10.80;;;5.10;99.90;;;;;;5077592;28;20228;-85
2023/11/09 06:56:51;;;;;;;19.53;10.57;;;5.20;99.90;;;;;;5093739;28;20259;-86
2023/11/09 06:59:21;;;;;;;20.43;10.23;;;5.30;99.90;;;;;;5095256;28;20210;-87
2023/11/09 07:01:48;;;;;;;18.53;10.50;;;5.30;99.90;;;;;;5095208;28;20195;-84
2023/11/09 07:04:17;;;;;;;16.17;9.90;;;5.40;99.90;;;;;;5095451;28;20215;-84
2023/11/09 07:06:45;;;;;;;16.17;10.30;;;5.40;99.90;;;;;;5093544;28;20204;-83
2023/11/09 07:09:12;;;;;;;17.33;9.67;;;5.50;99.90;;;;;;5094785;28;20274;-83
2023/11/09 07:11:42;;;;;;;16.03;9.40;;;5.60;99.90;;;;;;5094928;28;20292;-85
2023/11/09 07:14:11;;;;;;;17.53;9.40;;;5.60;99.90;;;;;;5094944;28;20231;-85
2023/11/09 07:16:38;;;;;;;17.30;9.03;;;5.60;99.90;;;;;;5094923;28;20191;-87
2023/11/09 07:19:05;;;;;;;18.67;9.77;;;5.70;99.90;;;;;;5094928;28;20278;-83
2023/11/09 07:21:32;;;;;;;16.87;9.43;;;5.70;99.90;;;;;;5094790;28;20190;-82
2023/11/09 07:24:03;;;;;;;15.40;8.97;;;5.80;99.90;;;;;;5093603;28;20230;-81
2023/11/09 07:26:31;;;;;;;19.87;9.43;;;5.90;99.90;;;;;;5094539;28;20613;-82
2023/11/09 07:28:58;;;;;;;16.67;8.97;;;6.20;99.90;;;;;;5094949;28;20193;-82
2023/11/09 07:31:25;;;;;;;13.93;8.53;;;6.70;99.90;;;;;;5094905;28;20192;-86
2023/11/09 07:33:52;;;;;;;17.73;8.77;;;7.10;99.90;;;;;;5093138;28;20223;-86
2023/11/09 07:36:19;;;;;;;16.43;8.43;;;7.60;99.90;;;;;;5093161;28;20621;-86
2023/11/09 07:38:47;;;;;;;14.97;8.13;;;8.00;99.90;;;;;;5094442;28;20640;-83
2023/11/09 07:41:14;;;;;;;14.30;7.77;;;8.30;99.90;;;;;;5094558;28;20218;-83
2023/11/09 07:43:43;;;;;;;14.70;7.63;;;8.60;99.90;;;;;;5094221;28;20195;-84
2023/11/09 07:46:10;;;;;;;18.70;7.97;;;8.80;99.90;;;;;;5092803;28;20193;-83
2023/11/09 07:48:37;;;;;;;13.23;7.03;;;8.70;99.90;;;;;;5094545;28;20589;-86
2023/11/09 07:51:05;;;;;;;12.63;7.60;;;8.60;99.90;;;;;;5092784;28;20205;-82
2023/11/09 07:53:32;;;;;;;14.33;7.30;;;8.90;99.90;;;;;;5094333;28;20662;-85
2023/11/09 07:56:00;;;;;;;14.90;7.47;;;9.30;99.90;;;;;;5092839;28;20362;-85
2023/11/09 07:58:29;;;;;;;13.27;7.60;;;9.30;99.90;;;;;;5095480;28;20232;-85
2023/11/09 08:00:57;;;;;;;15.07;7.60;;;9.30;99.90;;;;;;5092789;28;20292;-83
2023/11/09 08:03:24;;;;;;;14.93;7.60;;;9.20;99.90;;;;;;5092569;28;20250;-86
2023/11/09 08:05:51;;;;;;;17.13;7.57;;;9.20;99.90;;;;;;5093829;28;20645;-87
2023/11/09 08:08:19;;;;;;;15.53;7.70;;;9.10;99.90;;;;;;5092610;28;20235;-81
2023/11/09 08:10:47;;;;;;;25.97;10.03;;;9.00;99.90;;;;;;5092234;28;20213;-85
2023/11/09 08:13:14;;;;;;;17.65;8.48;;;9.10;99.90;;;;;;5093819;28;20422;-85
2023/11/09 08:15:41;;;;;;;15.60;7.93;;;9.10;99.90;;;;;;5093777;28;20213;-83
2023/11/09 08:18:08;;;;;;;14.63;7.73;;;9.30;99.90;;;;;;5093742;28;20255;-81
2023/11/09 08:20:35;;;;;;;14.03;7.80;;;9.50;99.90;;;;;;5093652;28;20203;-83
2023/11/09 08:23:03;;;;;;;13.37;7.47;;;9.60;99.90;;;;;;5093562;28;20258;-83
2023/11/09 08:25:30;;;;;;;14.13;7.83;;;9.80;99.90;;;;;;5093521;28;20210;-84
2023/11/09 08:27:57;;;;;;;13.50;7.23;;;10.00;99.90;;;;;;5091974;28;20236;-86
2023/11/09 08:30:27;;;;;;;16.87;7.80;;;10.10;99.90;;;;;;5093079;28;20193;-85
2023/11/09 08:32:55;;;;;;;13.83;7.13;;;10.10;99.90;;;;;;5091998;28;20220;-82
2023/11/09 08:35:26;;;;;;;15.10;7.27;;;10.10;99.90;;;;;;5074807;28;20232;-85
2023/11/09 08:37:53;;;;;;;15.23;7.10;;;9.90;99.90;;;;;;5092404;28;20637;-83
2023/11/09 08:40:27;;;;;;;11.27;6.53;;;9.80;99.90;;;;;;5075118;28;20722;-86
2023/11/09 08:42:57;;;;;;;12.83;7.33;;;9.90;99.90;;;;;;5091744;28;20253;-88
2023/11/09 08:45:27;;;;;;;14.93;6.57;;;9.90;99.90;;;;;;5075232;28;20534;-84
2023/11/09 08:47:55;;;;;;;14.10;7.13;;;9.80;99.90;;;;;;5093288;28;20196;-86
2023/11/09 08:50:25;;;;;;;13.50;7.00;;;9.80;99.90;;;;;;5092801;28;20193;-85
2023/11/09 08:52:53;;;;;;;10.77;6.33;;;9.60;99.90;;;;;;5091598;28;20189;-83
2023/11/09 08:55:22;;;;;;;11.20;6.30;;;9.40;99.90;;;;;;5093204;28;20235;-85
2023/11/09 08:57:50;;;;;;;11.57;6.37;;;9.20;99.90;;;;;;5091781;28;20291;-85
2023/11/09 09:00:18;;;;;;;12.90;6.40;;;9.30;99.90;;;;;;5091747;28;20220;-85
2023/11/09 09:02:48;;;;;;;11.40;6.73;;;9.50;99.90;;;;;;5091999;28;20208;-85
2023/11/09 09:05:21;;;;;;;17.67;7.73;;;9.50;99.90;;;;;;5093973;28;20668;-85
2023/11/09 09:07:50;;;;;;;12.77;6.60;;;9.60;99.90;;;;;;5093210;28;20645;-84
2023/11/09 09:10:24;;;;;;;11.37;5.97;;;9.80;99.90;;;;;;5092215;28;20258;-83
2023/11/09 09:12:51;;;;;;;12.73;6.13;;;9.70;99.90;;;;;;5074742;28;20650;-85
2023/11/09 09:15:20;;;;;;;15.23;6.50;;;9.60;99.90;;;;;;5091795;28;20213;-84
2023/11/09 09:17:49;;;;;;;13.40;6.27;;;9.40;99.90;;;;;;5091465;28;20204;-83
2023/11/09 09:20:19;;;;;;;11.60;6.27;;;9.50;99.90;;;;;;5092446;28;20199;-84
2023/11/09 09:22:50;;;;;;;11.10;5.90;;;9.60;99.90;;;;;;5092759;28;20732;-84
2023/11/09 09:25:17;;;;;;;10.00;5.83;;;9.60;99.90;;;;;;5092730;28;20220;-84
2023/11/09 09:27:46;;;;;;;9.37;5.63;;;9.50;99.90;;;;;;5092374;28;20668;-84
2023/11/09 09:30:18;;;;;;;12.83;5.50;;;9.50;99.90;;;;;;5074736;28;20227;-84
2023/11/09 09:32:47;;;;;;;10.07;4.97;;;9.50;99.90;;;;;;5092689;28;20197;-85
2023/11/09 09:35:15;;;;;;;8.60;5.50;;;9.50;99.90;;;;;;5092049;28;20676;-82
2023/11/09 09:37:45;;;;;;;10.53;5.80;;;9.60;99.90;;;;;;5091477;28;20196;-84
2023/11/09 09:40:17;;;;;;;9.63;5.50;;;9.60;99.90;;;;;;5092277;28;20241;-84
2023/11/09 09:42:46;;;;;;;11.93;5.20;;;9.60;99.90;;;;;;5092267;28;20228;-82
2023/11/09 09:45:15;;;;;;;10.87;5.63;;;9.70;99.90;;;;;;5090964;28;20188;-82
2023/11/09 09:47:48;;;;;;;11.07;5.00;;;9.80;99.90;;;;;;5092509;28;20205;-83
2023/11/09 09:50:22;;;;;;;11.30;5.47;;;9.80;99.90;;;;;;5091137;28;20250;-82
2023/11/09 09:52:57;;;;;;;10.03;5.07;;;9.90;99.90;;;;;;5092118;28;20225;-82
2023/11/09 09:55:26;;;;;;;10.07;5.20;;;10.00;99.90;;;;;;5090665;28;20217;-80
2023/11/09 09:57:55;;;;;;;10.50;5.57;;;10.10;99.90;;;;;;5090977;28;20202;-83
2023/11/09 10:00:23;;;;;;;9.93;5.57;;;10.30;99.90;;;;;;5092226;28;20220;-82
2023/11/09 10:03:02;;;;;;;11.53;5.30;;;10.30;99.90;;;;;;5092019;28;20269;-81
2023/11/09 10:05:36;;;;;;;11.87;5.43;;;10.40;99.90;;;;;;5092105;28;20217;-82
2023/11/09 10:08:08;;;;;;;11.30;6.00;;;10.50;99.90;;;;;;5090614;28;20196;-83
2023/11/09 10:10:37;;;;;;;11.80;6.27;;;10.50;99.90;;;;;;5092268;28;20263;-82
2023/11/09 10:13:10;;;;;;;11.10;5.70;;;10.50;99.90;;;;;;5090953;28;20197;-83
2023/11/09 10:15:37;;;;;;;11.10;5.93;;;10.40;99.90;;;;;;5090335;28;20716;-83
2023/11/09 10:18:05;;;;;;;12.13;6.33;;;10.50;99.90;;;;;;5091898;28;20205;-84
2023/11/09 10:20:33;;;;;;;12.33;6.33;;;10.50;99.90;;;;;;5074125;28;20197;-83
2023/11/09 10:23:04;;;;;;;13.23;6.60;;;10.60;99.90;;;;;;5092060;28;20235;-84
2023/11/09 10:25:32;;;;;;;12.67;5.73;;;10.60;99.90;;;;;;5092237;28;20209;-82
2023/11/09 10:28:00;;;;;;;9.87;5.80;;;10.70;99.90;;;;;;5094224;28;20189;-82
2023/11/09 10:30:37;;;;;;;11.73;5.97;;;10.70;99.90;;;;;;5095691;28;20243;-82
2023/11/09 10:33:09;;;;;;;10.57;5.90;;;10.80;99.90;;;;;;5094705;28;20197;-83
2023/11/09 10:35:42;;;;;;;11.80;5.77;;;10.70;99.90;;;;;;5093897;28;20286;-83
2023/11/09 10:38:12;;;;;;;9.13;5.23;;;10.70;99.90;;;;;;5094199;28;20189;-84
2023/11/09 10:40:41;;;;;;;13.40;5.63;;;10.80;99.90;;;;;;5094345;28;20213;-83
2023/11/09 10:43:33;;;;;;;13.03;5.83;;;10.80;99.90;;;;;;5094247;28;20197;-84
2023/11/09 10:46:07;;;;;;;14.40;5.90;;;10.90;99.90;;;;;;5077342;28;20193;-85
2023/11/09 10:48:44;;;;;;;10.33;5.13;;;11.00;99.90;;;;;;5094193;28;20189;-85
2023/11/09 10:51:14;;;;;;;11.07;5.53;;;11.00;99.90;;;;;;5095693;28;20219;-85
2023/11/09 10:53:43;;;;;;;9.53;4.73;;;11.00;99.90;;;;;;5095514;28;20200;-86
2023/11/09 10:56:13;;;;;;;10.37;5.30;;;10.90;99.90;;;;;;5094153;28;20262;-84
2023/11/09 10:58:44;;;;;;;10.27;5.07;;;10.90;99.90;;;;;;5077280;28;20198;-84
2023/11/09 11:01:20;;;;;;;12.50;5.13;;;10.80;99.90;;;;;;5095162;28;20200;-84
2023/11/09 11:03:54;;;;;;;11.80;5.07;;;10.90;99.90;;;;;;5094135;28;20235;-84
2023/11/09 11:06:29;;;;;;;15.43;5.20;;;11.00;99.90;;;;;;5077163;28;20293;-86
2023/11/09 11:09:02;;;;;;;7.23;4.20;;;11.10;99.90;;;;;;5093875;28;20208;-86
2023/11/09 11:11:33;;;;;;;7.47;4.33;;;11.20;99.90;;;;;;5093809;28;20292;-87
2023/11/09 11:14:07;;;;;;;9.50;4.13;;;11.20;99.90;;;;;;5076922;28;20296;-89
2023/11/09 11:16:53;;;;;;;7.00;4.00;;;11.30;99.90;;;;;;5076781;28;20588;-87
2023/11/09 11:19:53;;;;;;;9.30;4.33;;;11.30;99.90;;;;;;5094579;28;20648;-88
2023/11/09 11:22:55;;;;;;;12.13;5.00;;;11.70;99.90;;;;;;5075451;28;20201;-87
2023/11/09 11:25:34;;;;;;;8.07;4.00;;;12.20;99.90;;;;;;5092075;28;20275;-87
2023/11/09 11:28:11;;;;;;;12.03;4.17;;;13.00;99.90;;;;;;5075454;28;20728;-87
2023/11/09 11:30:39;;;;;;;7.20;3.60;;;13.50;99.90;;;;;;5075834;28;20197;-88
2023/11/09 11:33:11;;;;;;;6.63;3.60;;;14.40;99.90;;;;;;5059149;28;20300;-88
2023/11/09 11:35:41;;;;;;;7.80;3.40;;;15.30;99.90;;;;;;5091723;28;20226;-88
2023/11/09 11:38:18;;;;;;;10.17;3.50;;;15.70;99.90;;;;;;5075155;28;20194;-87
2023/11/09 11:40:46;;;;;;;9.23;4.13;;;16.60;99.90;;;;;;5076560;28;20213;-86
2023/11/09 11:43:15;;;;;;;8.20;3.97;;;16.60;99.90;;;;;;5074775;28;20727;-85
2023/11/09 11:45:46;;;;;;;5.97;3.30;;;17.30;99.90;;;;;;5074721;28;20244;-85
2023/11/09 11:48:30;;;;;;;5.80;3.33;;;17.80;99.90;;;;;;5075070;28;20185;-87
2023/11/09 11:50:59;;;;;;;6.83;3.63;;;18.20;99.90;;;;;;5075120;28;20740;-85
2023/11/09 11:53:28;;;;;;;6.80;3.30;;;18.30;99.90;;;;;;5091602;28;20735;-82
2023/11/09 11:56:13;;;;;;;7.07;3.47;;;18.30;99.90;;;;;;5074789;28;20237;-84
2023/11/09 11:58:42;;;;;;;5.87;3.50;;;18.70;99.90;;;;;;5076884;28;20251;-84
2023/11/09 12:01:21;;;;;;;7.90;3.90;;;18.60;99.90;;;;;;5092646;28;20192;-83
2023/11/09 12:04:06;;;;;;;6.53;3.50;;;17.90;99.90;;;;;;5093999;28;20666;-83
2023/11/09 12:06:41;;;;;;;7.60;3.20;;;18.00;99.90;;;;;;5092737;28;20232;-84
2023/11/09 12:09:10;;;;;;;6.30;3.27;;;18.00;99.90;;;;;;5092422;28;20649;-83
2023/11/09 12:11:47;;;;;;;4.27;3.00;;;18.20;99.90;;;;;;5092482;28;20657;-84
2023/11/09 12:14:18;;;;;;;5.63;3.23;;;18.00;99.90;;;;;;5093817;28;20254;-83
2023/11/09 12:16:46;;;;;;;6.20;2.93;;;17.80;99.90;;;;;;5092475;28;20190;-83
2023/11/09 12:19:14;;;;;;;7.40;3.03;;;17.00;99.90;;;;;;5092172;28;20832;-86
2023/11/09 12:21:48;;;;;;;6.80;3.23;;;16.80;99.90;;;;;;5092184;28;20194;-83
2023/11/09 12:24:21;;;;;;;4.00;2.70;;;16.70;99.90;;;;;;5093812;28;20607;-85
2023/11/09 12:27:05;;;;;;;6.30;2.80;;;16.30;99.90;;;;;;5093141;28;20217;-81
2023/11/09 12:29:41;;;;;;;7.00;2.93;;;15.90;99.90;;;;;;5091978;28;20190;-82
2023/11/09 12:32:10;;;;;;;5.63;2.90;;;15.50;99.90;;;;;;5075330;28;20232;-81
2023/11/09 12:34:40;;;;;;;5.40;2.70;;;15.00;99.90;;;;;;5075212;28;20201;-81
2023/11/09 12:37:13;;;;;;;7.67;3.00;;;14.90;99.90;;;;;;5093410;28;20217;-80
2023/11/09 12:39:43;;;;;;;5.33;2.40;;;14.80;99.90;;;;;;5092004;28;20193;-80
2023/11/09 12:42:14;;;;;;;10.03;3.10;;;14.50;99.90;;;;;;5093183;28;20684;-81
2023/11/09 12:44:44;;;;;;;6.00;2.57;;;14.40;99.90;;;;;;5092419;28;20189;-82
2023/11/09 12:47:12;;;;;;;6.10;2.60;;;14.60;99.90;;;;;;5092601;28;20217;-80
2023/11/09 12:49:40;;;;;;;7.40;2.70;;;14.80;99.90;;;;;;5093122;28;20702;-84
2023/11/09 12:52:09;;;;;;;5.30;2.70;;;14.70;99.90;;;;;;5093174;28;20247;-80
2023/11/09 12:54:39;;;;;;;5.30;2.60;;;14.60;99.90;;;;;;5092926;28;20318;-83
2023/11/09 12:57:08;;;;;;;6.47;3.13;;;14.20;99.90;;;;;;5091398;28;20228;-82
2023/11/09 12:59:41;;;;;;;3.83;2.47;;;14.20;99.90;;;;;;5093503;28;20237;-80
2023/11/09 13:02:16;;;;;;;7.00;2.97;;;14.40;99.90;;;;;;5091898;28;20602;-80
2023/11/09 13:04:48;;;;;;;4.53;2.37;;;14.40;99.90;;;;;;5075014;28;20621;-83